Time;durP1;ratioP1;P1;durP2;ratioP2;P2;SDS_P1;SDS_P2;PMS_P1;PMS_P2;Temp;Humidity;BMP_temperature;BMP_pressure;BME280_temperature;BME280_humidity;BME280_pressure;Samples;Min_cycle;Max_cycle;Signal;HPM_P1;HPM_P2
2022/12/22 03:25:54;;;;;;;2.55;0.50;;;9.80;79.10;;;;;;4999620;28;20497;-80
2022/12/22 03:28:26;;;;;;;4.53;0.70;;;9.90;78.70;;;;;;4997159;28;20371;-86
2022/12/22 03:31:02;;;;;;;1.30;0.30;;;10.00;78.10;;;;;;4964815;28;20030;-83
2022/12/22 03:33:29;;;;;;;2.67;0.50;;;10.00;78.60;;;;;;4997521;28;20096;-82
2022/12/22 03:35:55;;;;;;;1.92;0.40;;;10.00;78.40;;;;;;5000271;28;20053;-81
2022/12/22 03:38:22;;;;;;;1.92;0.50;;;10.00;78.30;;;;;;5000088;28;20394;-85
2022/12/22 03:40:47;;;;;;;2.75;0.50;;;9.90;79.00;;;;;;5000556;28;20042;-85
2022/12/22 03:49:08;;;;;;;0.95;0.30;;;9.90;79.10;;;;;;5002510;28;20382;-82
2022/12/22 03:51:32;;;;;;;3.05;0.45;;;10.00;78.90;;;;;;5001827;28;20029;-81
2022/12/22 03:54:00;;;;;;;2.38;0.75;;;10.00;78.70;;;;;;4982962;28;20104;-80
2022/12/22 03:56:27;;;;;;;2.25;0.70;;;10.00;78.40;;;;;;4999450;28;20038;-81
2022/12/22 03:58:56;;;;;;;4.47;0.45;;;10.00;78.30;;;;;;4983183;28;20033;-81
2022/12/22 04:01:23;;;;;;;5.38;0.70;;;10.00;78.00;;;;;;4998869;28;20552;-81
2022/12/22 04:03:54;;;;;;;1.27;0.45;;;10.10;77.40;;;;;;5016534;28;20042;-82
2022/12/22 04:06:23;;;;;;;2.35;0.90;;;10.10;77.20;;;;;;5016936;28;20030;-81
2022/12/22 04:08:48;;;;;;;4.30;0.57;;;10.20;75.80;;;;;;4998933;28;20122;-82
2022/12/22 04:13:59;;;;;;;5.32;1.05;;;10.20;77.10;;;;;;5011877;28;20091;-81
2022/12/22 04:16:28;;;;;;;6.25;0.82;;;10.20;77.40;;;;;;4999127;28;20029;-83
2022/12/22 04:19:05;;;;;;;6.43;1.00;;;10.20;77.60;;;;;;4999699;28;20038;-81
2022/12/22 04:21:34;;;;;;;7.95;1.27;;;10.10;78.70;;;;;;4998268;28;20059;-82
2022/12/22 04:24:12;;;;;;;1.88;0.75;;;10.00;79.40;;;;;;4982089;28;20053;-81
2022/12/22 04:26:38;;;;;;;5.88;1.27;;;9.90;80.20;;;;;;4996238;28;20057;-82
2022/12/22 04:29:04;;;;;;;6.25;1.15;;;9.90;80.80;;;;;;4981296;28;20038;-81
2022/12/22 04:31:33;;;;;;;5.80;1.20;;;9.90;81.10;;;;;;5015790;28;20475;-82
2022/12/22 04:34:00;;;;;;;9.25;1.10;;;9.80;81.90;;;;;;4982133;28;20030;-80
2022/12/22 04:36:27;;;;;;;7.72;1.58;;;9.80;81.60;;;;;;4999407;28;20037;-80
2022/12/22 04:38:53;;;;;;;7.55;1.48;;;9.90;81.00;;;;;;4983508;28;20376;-80
2022/12/22 04:41:20;;;;;;;6.47;1.20;;;9.90;80.90;;;;;;4982849;28;20026;-80
2022/12/22 04:43:47;;;;;;;5.45;1.45;;;10.00;81.10;;;;;;4982794;28;20096;-81
2022/12/22 04:46:15;;;;;;;7.75;1.58;;;9.90;80.70;;;;;;5015797;28;20026;-81
2022/12/22 04:48:41;;;;;;;7.95;1.48;;;9.90;81.20;;;;;;4966261;28;20092;-80
2022/12/22 04:51:07;;;;;;;5.40;1.10;;;10.00;80.30;;;;;;4998114;28;20022;-80
2022/12/22 04:53:33;;;;;;;9.45;1.75;;;10.00;79.70;;;;;;4998243;28;20021;-80
2022/12/22 04:56:02;;;;;;;12.88;2.05;;;10.00;78.80;;;;;;4997909;28;20029;-80
2022/12/22 04:58:29;;;;;;;4.47;1.30;;;10.10;78.60;;;;;;4998373;28;20441;-80
2022/12/22 05:00:55;;;;;;;8.02;1.67;;;10.10;78.10;;;;;;4999272;28;20037;-81
2022/12/22 05:03:21;;;;;;;8.27;2.20;;;10.20;77.70;;;;;;4982389;28;20045;-80
2022/12/22 05:05:46;;;;;;;6.63;2.13;;;10.30;77.50;;;;;;4988494;28;20034;-80
2022/12/22 05:08:12;;;;;;;8.40;1.40;;;10.10;78.40;;;;;;4998074;28;20018;-81
2022/12/22 05:10:41;;;;;;;8.13;1.73;;;10.20;77.90;;;;;;4981674;28;20033;-83
2022/12/22 05:13:08;;;;;;;9.43;1.42;;;10.20;77.80;;;;;;4965770;28;20038;-83
2022/12/22 05:15:35;;;;;;;8.60;1.23;;;10.20;77.10;;;;;;4981240;28;20038;-82
2022/12/22 05:18:01;;;;;;;9.82;1.38;;;10.30;76.70;;;;;;4981990;28;20033;-82
2022/12/22 05:20:28;;;;;;;7.50;1.30;;;10.30;76.80;;;;;;4992922;28;20032;-81
2022/12/22 05:22:53;;;;;;;10.27;1.50;;;10.40;75.50;;;;;;4996895;28;20513;-80
2022/12/22 05:25:20;;;;;;;6.43;1.65;;;10.40;76.40;;;;;;4997336;28;20030;-80
2022/12/22 05:27:48;;;;;;;7.10;1.67;;;10.40;75.40;;;;;;4996959;28;20022;-80
2022/12/22 05:30:15;;;;;;;7.25;1.45;;;10.40;74.60;;;;;;4997089;28;20121;-80
2022/12/22 05:32:41;;;;;;;5.78;1.20;;;10.40;74.90;;;;;;4997340;28;20418;-79
2022/12/22 05:35:08;;;;;;;8.57;1.38;;;10.40;74.70;;;;;;4997338;28;20025;-80
2022/12/22 05:37:36;;;;;;;9.00;2.30;;;10.30;74.90;;;;;;4996799;28;20027;-80
2022/12/22 05:40:08;;;;;;;10.63;1.92;;;10.40;74.80;;;;;;4980819;28;20372;-79
2022/12/22 05:42:43;;;;;;;7.38;1.35;;;10.30;74.80;;;;;;4996947;28;20540;-79
2022/12/22 05:45:21;;;;;;;8.80;1.85;;;10.30;73.90;;;;;;4995926;28;20072;-80
2022/12/22 05:47:51;;;;;;;5.00;1.15;;;10.30;73.40;;;;;;4981279;28;20034;-78
2022/12/22 05:50:26;;;;;;;14.55;1.92;;;10.30;73.00;;;;;;4980627;28;20034;-79
2022/12/22 05:52:53;;;;;;;11.55;2.35;;;10.40;72.20;;;;;;4996680;28;20449;-78
2022/12/22 05:55:19;;;;;;;7.63;1.45;;;10.40;72.00;;;;;;4995632;28;20526;-79
2022/12/22 05:57:46;;;;;;;15.00;2.42;;;10.40;71.60;;;;;;4996117;28;20037;-79
2022/12/22 06:00:14;;;;;;;7.85;1.55;;;10.40;70.90;;;;;;4980271;28;20041;-79
2022/12/22 06:02:44;;;;;;;11.88;2.17;;;10.30;71.60;;;;;;4980399;28;20033;-79
2022/12/22 06:05:11;;;;;;;9.27;1.95;;;10.30;71.00;;;;;;4980157;28;20052;-80
2022/12/22 06:07:38;;;;;;;12.38;2.08;;;10.30;69.60;;;;;;5014304;28;20026;-80
2022/12/22 06:10:07;;;;;;;13.57;2.00;;;10.30;68.80;;;;;;5014414;28;20483;-79
2022/12/22 06:12:35;;;;;;;11.70;2.08;;;10.40;68.20;;;;;;4980223;28;20049;-80
2022/12/22 06:15:01;;;;;;;8.25;2.22;;;10.40;66.70;;;;;;4994219;28;20394;-79
2022/12/22 06:17:27;;;;;;;8.00;1.83;;;10.50;66.00;;;;;;4996196;28;20122;-79
2022/12/22 06:19:54;;;;;;;13.18;2.00;;;10.60;66.20;;;;;;4979877;28;20124;-80
2022/12/22 06:22:24;;;;;;;13.02;1.75;;;10.50;66.10;;;;;;4979423;28;20100;-79
2022/12/22 06:24:52;;;;;;;11.05;2.17;;;10.40;66.20;;;;;;5013418;28;20042;-78
2022/12/22 06:27:19;;;;;;;9.20;1.65;;;10.40;66.10;;;;;;4964588;28;20399;-78
2022/12/22 06:29:45;;;;;;;10.73;2.17;;;10.40;66.40;;;;;;4995938;28;20022;-77
2022/12/22 06:32:10;;;;;;;7.20;1.98;;;10.40;67.00;;;;;;4996193;28;20034;-80
2022/12/22 06:34:36;;;;;;;9.27;1.67;;;10.30;67.00;;;;;;4995759;28;20351;-80
2022/12/22 06:37:15;;;;;;;10.27;1.58;;;10.30;67.10;;;;;;4979214;28;20053;-79
2022/12/22 06:39:42;;;;;;;12.40;2.15;;;10.20;67.30;;;;;;5013477;28;20455;-78
2022/12/22 06:44:54;;;;;;;7.07;1.17;;;10.20;67.80;;;;;;5008342;28;20049;-78
2022/12/22 06:47:34;;;;;;;7.97;1.58;;;10.20;66.60;;;;;;5013634;28;20030;-84
2022/12/22 06:50:00;;;;;;;10.27;1.92;;;10.20;68.00;;;;;;4996422;28;20030;-80
2022/12/22 06:52:26;;;;;;;9.65;2.13;;;10.10;68.40;;;;;;4963906;28;20036;-77
2022/12/22 06:54:52;;;;;;;5.88;1.25;;;10.10;68.00;;;;;;4980720;28;20038;-80
2022/12/22 06:57:20;;;;;;;8.55;1.33;;;10.20;67.20;;;;;;4999186;28;20052;-81
2022/12/22 06:59:48;;;;;;;10.70;1.85;;;10.10;67.50;;;;;;5014801;28;20029;-79
2022/12/22 07:02:15;;;;;;;10.38;1.67;;;10.20;67.70;;;;;;4980238;28;20390;-83
2022/12/22 07:04:40;;;;;;;11.68;1.90;;;10.20;67.30;;;;;;4996092;28;20501;-81
2022/12/22 07:07:12;;;;;;;6.72;1.25;;;10.10;67.10;;;;;;5014501;28;20029;-79
2022/12/22 07:09:47;;;;;;;9.73;1.98;;;10.20;67.10;;;;;;5002314;28;20037;-78
2022/12/22 07:12:13;;;;;;;9.77;1.80;;;10.10;67.30;;;;;;5006197;28;20425;-80
2022/12/22 07:14:40;;;;;;;12.10;1.92;;;10.10;67.50;;;;;;4985839;28;20026;-78
2022/12/22 07:17:08;;;;;;;13.52;2.72;;;10.20;67.00;;;;;;5020327;28;20026;-82
2022/12/22 07:19:35;;;;;;;11.55;1.92;;;10.20;67.10;;;;;;5001996;28;20034;-78
2022/12/22 07:22:00;;;;;;;7.25;1.33;;;10.10;67.70;;;;;;4998420;28;20042;-78
2022/12/22 07:24:30;;;;;;;7.45;1.65;;;10.10;67.60;;;;;;4981850;28;20056;-79
2022/12/22 07:26:57;;;;;;;10.15;2.25;;;10.10;67.80;;;;;;5022268;28;20026;-79
2022/12/22 07:29:25;;;;;;;12.77;2.05;;;10.20;67.40;;;;;;4995351;28;20125;-80
2022/12/22 07:31:56;;;;;;;13.35;2.22;;;10.10;67.60;;;;;;4987691;28;20513;-79
2022/12/22 07:34:22;;;;;;;10.30;2.50;;;10.20;67.50;;;;;;5007940;28;20053;-79
2022/12/22 07:36:50;;;;;;;14.05;2.70;;;10.20;67.80;;;;;;4990847;28;20038;-80
2022/12/22 07:39:16;;;;;;;20.30;2.88;;;10.20;68.10;;;;;;4985083;28;20348;-80
2022/12/22 07:44:27;;;;;;;14.20;3.08;;;10.10;68.10;;;;;;5002710;28;20045;-80
2022/12/22 07:46:55;;;;;;;9.50;1.95;;;10.10;68.60;;;;;;5006043;28;20086;-80
2022/12/22 07:52:24;;;;;;;17.02;2.83;;;10.20;68.40;;;;;;5020207;28;20046;-82
2022/12/22 07:55:23;;;;;;;10.63;1.98;;;10.20;68.90;;;;;;5016681;28;20014;-87
2022/12/22 07:57:51;;;;;;;9.52;1.75;;;10.20;68.40;;;;;;5022803;28;20007;-84
2022/12/22 08:00:37;;;;;;;17.30;2.53;;;10.20;68.70;;;;;;5006495;28;20184;-84
2022/12/22 08:03:04;;;;;;;12.32;2.05;;;10.10;69.60;;;;;;4988157;28;20049;-85
2022/12/22 08:05:36;;;;;;;15.98;2.45;;;10.20;69.90;;;;;;5016540;28;20046;-84
2022/12/22 08:08:03;;;;;;;8.93;2.05;;;10.30;68.80;;;;;;5006478;28;20572;-78
2022/12/22 08:10:34;;;;;;;13.98;2.35;;;10.20;68.50;;;;;;5019128;28;20038;-79
2022/12/22 08:13:01;;;;;;;14.07;2.75;;;10.30;68.00;;;;;;4998594;28;20090;-80
2022/12/22 08:15:28;;;;;;;10.38;2.00;;;10.30;67.90;;;;;;4996307;28;20038;-79
2022/12/22 08:17:57;;;;;;;14.82;2.42;;;10.30;67.40;;;;;;4993042;28;20031;-78
2022/12/22 08:20:24;;;;;;;11.80;2.40;;;10.40;67.10;;;;;;4999822;28;20063;-80
2022/12/22 08:22:53;;;;;;;13.10;2.78;;;10.40;66.60;;;;;;4964861;28;20475;-80
2022/12/22 08:25:20;;;;;;;19.98;2.63;;;10.40;67.80;;;;;;4960119;28;20076;-79
2022/12/22 08:27:50;;;;;;;10.15;2.20;;;10.40;69.70;;;;;;4974574;28;20027;-81
2022/12/22 08:30:16;;;;;;;9.48;2.35;;;10.20;72.90;;;;;;4975430;28;20063;-79
2022/12/22 08:32:45;;;;;;;9.95;1.75;;;10.00;75.10;;;;;;4975381;28;20471;-79
2022/12/22 08:35:13;;;;;;;11.43;1.95;;;9.90;78.30;;;;;;4974955;28;20027;-79
2022/12/22 08:37:42;;;;;;;11.52;1.95;;;9.70;80.10;;;;;;4959273;28;20030;-80
2022/12/22 08:40:20;;;;;;;13.50;2.55;;;9.70;81.50;;;;;;4975060;28;20032;-79
2022/12/22 08:42:57;;;;;;;10.90;2.25;;;9.60;81.40;;;;;;4960201;28;20038;-80
2022/12/22 08:45:23;;;;;;;13.82;2.47;;;9.50;82.00;;;;;;4958838;28;20508;-79
2022/12/22 08:47:50;;;;;;;12.73;2.22;;;9.50;82.40;;;;;;4974904;28;20399;-79
2022/12/22 08:50:17;;;;;;;9.57;2.30;;;9.50;81.40;;;;;;4975522;28;20057;-79
2022/12/22 08:52:42;;;;;;;17.52;2.22;;;9.50;82.30;;;;;;4958673;28;20439;-79
2022/12/22 08:55:12;;;;;;;16.17;2.90;;;9.60;80.50;;;;;;4976173;28;20036;-79
2022/12/22 08:57:40;;;;;;;14.90;2.60;;;9.70;79.10;;;;;;4958853;28;20182;-79
2022/12/22 09:00:11;;;;;;;11.40;2.03;;;9.80;77.60;;;;;;4942856;28;20030;-79
2022/12/22 09:02:40;;;;;;;9.75;1.98;;;10.00;76.70;;;;;;4975002;28;20392;-79
2022/12/22 09:05:07;;;;;;;15.85;2.33;;;10.20;74.70;;;;;;4974694;28;20043;-80
2022/12/22 09:07:36;;;;;;;11.25;1.70;;;10.20;73.90;;;;;;4971282;28;20440;-79
2022/12/22 09:10:25;;;;;;;5.15;1.15;;;10.10;73.10;;;;;;4974483;28;20023;-80
2022/12/22 09:12:52;;;;;;;6.30;1.63;;;10.10;73.70;;;;;;4974574;28;20030;-80
2022/12/22 09:15:18;;;;;;;6.63;1.20;;;10.10;73.10;;;;;;4959700;28;20049;-79
2022/12/22 09:17:43;;;;;;;10.73;2.70;;;10.20;72.10;;;;;;4974496;28;20023;-79
2022/12/22 09:20:09;;;;;;;12.15;1.83;;;10.20;72.00;;;;;;4974583;28;20110;-83
2022/12/22 09:22:35;;;;;;;11.75;2.20;;;10.20;72.40;;;;;;4958285;28;20058;-80
2022/12/22 09:25:04;;;;;;;6.57;2.13;;;10.10;72.20;;;;;;4973994;28;20455;-80
2022/12/22 09:27:29;;;;;;;10.32;2.60;;;10.20;71.30;;;;;;4958217;28;20475;-81
2022/12/22 09:29:55;;;;;;;12.70;2.03;;;10.20;71.20;;;;;;4974207;28;20041;-82
2022/12/22 09:32:20;;;;;;;9.60;1.65;;;10.30;70.60;;;;;;4974301;28;20054;-81
2022/12/22 09:34:47;;;;;;;8.38;2.00;;;10.30;70.60;;;;;;4975009;28;20035;-82
2022/12/22 09:37:18;;;;;;;7.40;2.13;;;10.30;71.10;;;;;;4958542;28;20089;-81
2022/12/22 09:40:36;;;;;;;11.57;2.10;;;10.20;71.90;;;;;;4971815;28;20150;-82
2022/12/22 09:43:03;;;;;;;13.93;2.22;;;10.20;71.00;;;;;;4974572;28;20027;-85
2022/12/22 09:45:32;;;;;;;10.65;2.10;;;10.30;71.60;;;;;;4974318;28;20050;-85
2022/12/22 09:48:00;;;;;;;9.27;1.98;;;10.20;72.30;;;;;;4976068;28;20026;-87
2022/12/22 09:50:27;;;;;;;12.23;1.85;;;10.20;73.20;;;;;;4958969;28;20069;-87
2022/12/22 09:53:26;;;;;;;10.30;2.00;;;10.10;73.70;;;;;;4958471;28;20038;-86
2022/12/22 09:56:17;;;;;;;10.05;2.03;;;10.00;74.90;;;;;;4967759;28;20491;-81
2022/12/22 09:58:46;;;;;;;11.93;2.50;;;9.90;75.80;;;;;;4973816;28;20057;-81
2022/12/22 10:01:49;;;;;;;12.15;2.17;;;9.90;76.10;;;;;;4973972;28;20058;-82
2022/12/22 10:05:09;;;;;;;9.52;2.15;;;9.90;76.30;;;;;;4975254;28;20043;-81
2022/12/22 10:08:21;;;;;;;13.63;2.92;;;9.90;75.80;;;;;;4974266;28;20035;-80
2022/12/22 10:10:53;;;;;;;12.20;1.83;;;10.00;75.00;;;;;;4973815;28;20118;-81
2022/12/22 10:13:26;;;;;;;11.52;2.47;;;10.00;74.20;;;;;;4972971;28;20607;-81
2022/12/22 10:15:55;;;;;;;14.07;2.97;;;10.10;73.80;;;;;;4973680;28;20058;-81
2022/12/22 10:18:46;;;;;;;12.57;2.33;;;10.20;73.00;;;;;;4936933;28;20066;-81
2022/12/22 10:21:15;;;;;;;11.80;2.30;;;10.30;72.90;;;;;;4973543;28;20054;-82
2022/12/22 10:24:13;;;;;;;12.25;2.00;;;10.30;72.70;;;;;;4957640;28;20125;-87
2022/12/22 10:27:03;;;;;;;11.35;2.10;;;10.40;71.10;;;;;;4974979;28;20531;-87
2022/12/22 10:29:34;;;;;;;8.15;1.63;;;10.50;70.50;;;;;;4958193;28;20039;-86
2022/12/22 10:32:25;;;;;;;10.38;1.90;;;10.50;70.40;;;;;;4975504;28;20038;-86
2022/12/22 10:35:25;;;;;;;5.47;1.58;;;10.50;70.30;;;;;;4973667;28;20050;-86
2022/12/22 10:38:27;;;;;;;9.02;2.10;;;10.50;71.00;;;;;;4974841;28;20046;-82
2022/12/22 10:41:33;;;;;;;10.63;1.90;;;10.50;71.60;;;;;;4972428;28;20038;-81
2022/12/22 10:44:10;;;;;;;8.15;1.67;;;10.40;71.40;;;;;;4960665;28;20563;-80
2022/12/22 10:46:50;;;;;;;10.43;1.73;;;10.50;71.40;;;;;;4972850;28;20023;-80
2022/12/22 10:49:22;;;;;;;8.32;1.45;;;10.50;71.70;;;;;;4956758;28;20030;-81
2022/12/22 10:51:52;;;;;;;9.82;2.08;;;10.50;72.00;;;;;;4973247;28;20109;-81
2022/12/22 10:54:39;;;;;;;10.52;2.22;;;10.70;71.50;;;;;;4973188;28;20289;-80
2022/12/22 10:57:38;;;;;;;9.40;2.00;;;10.60;71.40;;;;;;4971173;28;20483;-81
2022/12/22 11:04:14;;;;;;;10.10;2.17;;;10.60;72.10;;;;;;4973354;28;20388;-82
2022/12/22 11:07:25;;;;;;;12.75;2.05;;;10.50;71.30;;;;;;4974009;28;20027;-82
2022/12/22 11:11:18;;;;;;;7.90;1.77;;;10.50;71.00;;;;;;4974083;28;20050;-83
2022/12/22 11:14:29;;;;;;;11.02;1.90;;;10.50;71.20;;;;;;4971692;28;20077;-83
2022/12/22 11:17:33;;;;;;;10.25;1.75;;;10.60;70.80;;;;;;4973172;28;20026;-82
2022/12/22 11:20:36;;;;;;;13.52;3.03;;;10.70;70.50;;;;;;4974059;28;20089;-82
2022/12/22 11:24:14;;;;;;;9.77;1.67;;;10.60;70.70;;;;;;4985912;28;20046;-81
2022/12/22 11:28:09;;;;;;;9.95;2.40;;;10.60;70.60;;;;;;4952498;29;20044;-80
2022/12/22 11:31:18;;;;;;;13.70;2.28;;;10.60;70.70;;;;;;4942294;28;20039;-80
2022/12/22 12:04:55;;;;;;;14.70;2.65;;;10.80;67.50;;;;;;4981100;28;20053;-79
2022/12/22 12:15:01;;;;;;;10.02;2.38;;;10.90;65.90;;;;;;4955915;29;20206;-78
2022/12/22 14:14:27;;;;;;;16.70;3.58;;;10.80;66.70;;;;;;4996544;28;20095;-79
2022/12/22 14:16:55;;;;;;;15.85;3.03;;;10.80;67.00;;;;;;4994286;28;20031;-79
2022/12/22 14:19:22;;;;;;;17.73;3.15;;;10.80;66.90;;;;;;4995510;28;20370;-80
2022/12/22 14:22:22;;;;;;;12.50;2.40;;;10.90;66.80;;;;;;4978520;28;20038;-80
2022/12/22 14:24:53;;;;;;;16.80;2.58;;;10.90;66.80;;;;;;4995951;28;20579;-80
2022/12/22 14:27:40;;;;;;;18.38;2.92;;;10.80;67.20;;;;;;5013178;28;20033;-80
2022/12/22 14:30:23;;;;;;;10.95;2.60;;;10.80;67.00;;;;;;4974087;28;20023;-80
2022/12/22 14:32:55;;;;;;;12.13;2.63;;;10.80;67.50;;;;;;4944622;28;20403;-81
2022/12/22 14:35:31;;;;;;;12.98;2.75;;;10.80;67.40;;;;;;4978461;28;20117;-80
2022/12/22 14:38:24;;;;;;;12.27;2.88;;;10.80;67.60;;;;;;4989150;28;20037;-80
2022/12/22 14:40:55;;;;;;;12.75;2.90;;;10.80;67.30;;;;;;4996395;28;20030;-80
2022/12/22 14:43:28;;;;;;;10.27;2.35;;;10.80;67.50;;;;;;4961701;28;20041;-78
2022/12/22 14:46:11;;;;;;;18.50;3.05;;;10.70;67.70;;;;;;4996176;28;20026;-80
2022/12/22 14:48:51;;;;;;;21.00;3.50;;;10.70;67.80;;;;;;4999574;28;20038;-78
2022/12/22 14:51:18;;;;;;;14.40;3.08;;;10.70;68.00;;;;;;4998944;28;20026;-79
2022/12/22 14:53:53;;;;;;;16.65;3.53;;;10.70;67.60;;;;;;5002887;28;20058;-79
2022/12/22 14:56:19;;;;;;;10.98;2.50;;;10.70;67.50;;;;;;4961293;28;20430;-79
2022/12/22 14:58:47;;;;;;;17.13;3.95;;;10.70;67.10;;;;;;4976584;28;20038;-79
2022/12/22 15:01:15;;;;;;;16.33;3.45;;;10.60;67.30;;;;;;4993575;28;20383;-80
2022/12/22 15:04:08;;;;;;;16.75;3.42;;;10.60;67.30;;;;;;4993617;28;20035;-80
2022/12/22 15:06:47;;;;;;;15.60;3.22;;;10.60;67.60;;;;;;4993608;28;20046;-78
2022/12/22 15:09:12;;;;;;;13.38;3.03;;;10.60;67.50;;;;;;4976219;28;20030;-79
2022/12/22 15:11:43;;;;;;;13.00;2.85;;;10.50;67.50;;;;;;4976439;28;20034;-80
2022/12/22 15:14:15;;;;;;;18.15;3.15;;;10.50;67.70;;;;;;4975399;28;20049;-80
2022/12/22 15:16:44;;;;;;;16.38;2.85;;;10.60;67.80;;;;;;4976608;28;20054;-79
2022/12/22 15:19:22;;;;;;;18.70;3.28;;;10.50;67.60;;;;;;4975499;28;20093;-80
2022/12/22 15:21:51;;;;;;;14.00;3.22;;;10.50;67.60;;;;;;4975341;28;20046;-81
2022/12/22 15:24:40;;;;;;;10.05;2.88;;;10.40;67.90;;;;;;4982997;28;20042;-79
2022/12/22 15:27:07;;;;;;;13.95;2.95;;;10.40;67.70;;;;;;4992965;28;20029;-79
2022/12/22 15:29:41;;;;;;;10.30;3.05;;;10.40;68.10;;;;;;4978428;28;20041;-79
2022/12/22 15:32:14;;;;;;;17.00;2.95;;;10.40;68.10;;;;;;4995746;28;20065;-80
2022/12/22 15:34:45;;;;;;;13.50;2.33;;;10.40;68.00;;;;;;4995941;28;20026;-80
2022/12/22 15:37:12;;;;;;;11.27;2.00;;;10.40;68.10;;;;;;4979140;28;20450;-80
2022/12/22 15:39:43;;;;;;;14.57;2.83;;;10.40;67.90;;;;;;5011620;28;20112;-79
2022/12/22 15:42:30;;;;;;;14.55;2.60;;;10.40;67.50;;;;;;4996878;28;20052;-79
2022/12/22 15:45:03;;;;;;;13.00;2.25;;;10.40;67.70;;;;;;4995635;28;20380;-79
2022/12/22 15:47:52;;;;;;;16.33;2.80;;;10.40;67.80;;;;;;4992320;28;20034;-80
2022/12/22 15:50:30;;;;;;;11.00;2.80;;;10.30;68.20;;;;;;4964961;28;20034;-80
2022/12/22 15:53:04;;;;;;;16.90;3.25;;;10.40;68.20;;;;;;4995164;28;20030;-80
2022/12/22 15:55:34;;;;;;;;;;;10.40;68.10;;;;;;4993075;28;20121;-81
2022/12/22 15:58:02;;;;;;;24.33;3.33;;;10.30;68.10;;;;;;4993858;28;19909;-80
2022/12/22 16:00:30;;;;;;;18.80;4.78;;;10.30;68.60;;;;;;4977844;28;20023;-80
2022/12/22 16:02:55;;;;;;;18.75;3.50;;;10.20;68.70;;;;;;4985599;28;20041;-80
2022/12/22 16:05:23;;;;;;;21.33;3.70;;;10.20;68.60;;;;;;4995565;28;20042;-80
2022/12/22 16:07:52;;;;;;;19.38;3.80;;;10.20;68.40;;;;;;4962272;28;20174;-79
2022/12/22 16:10:27;;;;;;;22.95;4.60;;;10.40;68.70;;;;;;4988919;28;20486;-80
2022/12/22 16:13:21;;;;;;;21.70;3.53;;;10.40;68.50;;;;;;5000377;28;20113;-81
2022/12/22 16:15:51;;;;;;;17.58;4.13;;;10.40;69.40;;;;;;4976358;28;20114;-80
2022/12/22 16:18:24;;;;;;;20.33;4.30;;;10.30;69.60;;;;;;4967605;28;20031;-80
2022/12/22 16:21:09;;;;;;;20.45;4.35;;;10.30;69.90;;;;;;5000993;28;20121;-79
2022/12/22 16:23:38;;;;;;;18.35;3.90;;;10.30;69.70;;;;;;4964734;28;20058;-80
2022/12/22 16:26:18;;;;;;;21.88;4.07;;;10.40;69.20;;;;;;4997295;28;20054;-80
2022/12/22 16:28:44;;;;;;;21.30;5.07;;;10.30;69.20;;;;;;4979106;28;20034;-80
2022/12/22 16:31:33;;;;;;;21.27;3.97;;;10.40;70.30;;;;;;4946295;28;20049;-80
2022/12/22 16:34:02;;;;;;;27.50;4.85;;;10.30;70.30;;;;;;4994339;28;20498;-80
2022/12/22 16:36:43;;;;;;;19.20;3.60;;;10.30;70.60;;;;;;4977698;28;20065;-80
2022/12/22 16:39:13;;;;;;;20.75;3.70;;;10.30;70.60;;;;;;4976791;28;20039;-80
2022/12/22 16:41:47;;;;;;;19.35;3.83;;;10.20;70.00;;;;;;4977636;28;20057;-81
2022/12/22 16:44:21;;;;;;;17.90;3.63;;;10.20;70.10;;;;;;4978573;28;20034;-79
2022/12/22 16:46:49;;;;;;;25.73;4.90;;;10.20;70.10;;;;;;4979179;28;20030;-79
2022/12/22 16:49:20;;;;;;;16.08;3.67;;;10.20;70.40;;;;;;4963773;28;20038;-80
2022/12/22 16:51:49;;;;;;;20.42;4.38;;;10.20;70.40;;;;;;4995043;28;20030;-79
2022/12/22 16:54:25;;;;;;;28.67;4.53;;;10.20;69.90;;;;;;4979527;28;20030;-79
2022/12/22 16:56:55;;;;;;;17.88;3.95;;;10.30;69.70;;;;;;4977751;28;20018;-80
2022/12/22 16:59:25;;;;;;;24.50;5.07;;;10.20;69.50;;;;;;4962138;28;20030;-79
2022/12/22 17:01:56;;;;;;;23.08;4.47;;;10.30;69.10;;;;;;4978360;28;20161;-80
2022/12/22 17:04:47;;;;;;;18.60;3.50;;;10.30;69.10;;;;;;4978261;28;20045;-80
2022/12/22 17:07:42;;;;;;;22.88;3.47;;;10.40;68.70;;;;;;4977426;28;20049;-81
2022/12/22 17:10:14;;;;;;;17.70;3.30;;;10.40;68.70;;;;;;4982570;28;20031;-79
2022/12/22 17:13:07;;;;;;;17.65;3.47;;;10.40;68.40;;;;;;4984240;28;20057;-79
2022/12/22 17:15:35;;;;;;;20.38;3.53;;;10.40;68.60;;;;;;4973923;28;20077;-80
2022/12/22 17:18:12;;;;;;;20.48;3.95;;;10.40;68.40;;;;;;4973098;28;20105;-80
2022/12/22 17:20:42;;;;;;;20.42;3.60;;;10.50;68.50;;;;;;4973600;28;20039;-80
2022/12/22 17:23:32;;;;;;;15.05;2.50;;;10.50;68.10;;;;;;4974627;28;20319;-80
2022/12/22 17:26:04;;;;;;;24.88;3.75;;;10.50;69.40;;;;;;4935712;29;20485;-80
2022/12/22 17:28:32;;;;;;;18.90;3.65;;;10.50;70.80;;;;;;4935268;29;20114;-80
2022/12/22 17:31:00;;;;;;;18.17;3.85;;;10.30;72.00;;;;;;4936268;29;20404;-80
2022/12/22 17:33:31;;;;;;;17.90;3.30;;;10.20;72.60;;;;;;4919315;29;20079;-80
2022/12/22 17:36:38;;;;;;;16.67;2.78;;;10.20;72.20;;;;;;4935921;29;20040;-79
2022/12/22 17:39:04;;;;;;;18.27;3.08;;;10.10;71.60;;;;;;4935506;29;20095;-79
2022/12/22 17:41:30;;;;;;;19.88;3.13;;;10.20;71.00;;;;;;4920421;29;20504;-80
2022/12/22 17:43:57;;;;;;;12.73;2.15;;;10.30;70.80;;;;;;4936104;29;20123;-80
2022/12/22 17:46:33;;;;;;;17.55;3.90;;;10.30;71.40;;;;;;4936200;29;20083;-79
2022/12/22 17:49:02;;;;;;;13.38;3.00;;;10.30;71.50;;;;;;4936714;29;20122;-79
2022/12/22 17:51:30;;;;;;;15.05;2.97;;;10.20;71.30;;;;;;4936640;29;20047;-79
2022/12/22 17:54:20;;;;;;;13.88;2.95;;;10.30;70.60;;;;;;4936774;29;20118;-80
2022/12/22 17:56:48;;;;;;;15.40;2.88;;;10.30;70.40;;;;;;4922808;29;20141;-80
2022/12/22 17:59:15;;;;;;;19.00;3.03;;;10.30;71.20;;;;;;4919332;29;20031;-79
2022/12/22 18:01:46;;;;;;;12.95;2.78;;;10.30;70.90;;;;;;4919140;29;20047;-82
2022/12/22 18:04:18;;;;;;;11.80;2.63;;;10.30;71.20;;;;;;4936965;29;20028;-79
2022/12/22 18:07:06;;;;;;;20.13;3.13;;;10.30;70.90;;;;;;4936266;29;20256;-79
2022/12/22 18:09:37;;;;;;;13.20;2.20;;;10.40;70.80;;;;;;4940500;29;20031;-79
2022/12/22 18:12:10;;;;;;;13.32;2.47;;;10.40;70.80;;;;;;4935464;29;20092;-80
2022/12/22 18:14:58;;;;;;;17.40;2.10;;;10.40;70.80;;;;;;4941974;29;20051;-80
2022/12/22 18:17:33;;;;;;;16.45;2.90;;;10.40;71.70;;;;;;4950697;29;20102;-80
2022/12/22 18:20:00;;;;;;;11.25;2.47;;;10.30;72.10;;;;;;4954019;29;20496;-79
2022/12/22 18:22:28;;;;;;;14.95;2.35;;;10.30;72.30;;;;;;4953993;29;20122;-80
2022/12/22 18:24:56;;;;;;;11.40;2.45;;;10.20;73.10;;;;;;4954053;28;20130;-79
2022/12/22 18:27:25;;;;;;;14.68;2.88;;;10.20;74.20;;;;;;4937868;29;20130;-80
2022/12/22 18:30:03;;;;;;;12.95;2.17;;;10.20;74.30;;;;;;4969758;28;20031;-79
2022/12/22 18:32:39;;;;;;;10.88;1.98;;;10.10;75.40;;;;;;4953395;28;20072;-81
2022/12/22 18:35:05;;;;;;;9.93;2.25;;;10.10;75.90;;;;;;4953750;28;20027;-81
2022/12/22 18:37:30;;;;;;;18.00;2.95;;;9.90;75.80;;;;;;4953581;29;20034;-81
2022/12/22 18:39:56;;;;;;;13.20;2.33;;;9.90;77.90;;;;;;4954127;29;20118;-80
2022/12/22 18:42:22;;;;;;;11.88;3.22;;;9.90;77.70;;;;;;4954199;29;20067;-80
2022/12/22 18:44:50;;;;;;;15.88;3.47;;;9.80;78.20;;;;;;4954214;29;20043;-82
2022/12/22 18:47:16;;;;;;;14.02;2.90;;;9.80;78.10;;;;;;4953744;29;20019;-81
2022/12/22 18:49:42;;;;;;;12.45;1.98;;;9.90;77.30;;;;;;4953707;29;20027;-82
2022/12/22 18:52:15;;;;;;;12.60;2.10;;;9.90;77.20;;;;;;4954297;29;20364;-81
2022/12/22 18:54:45;;;;;;;9.15;2.20;;;9.80;77.50;;;;;;4955084;29;20023;-81
2022/12/22 18:57:54;;;;;;;12.23;2.25;;;9.80;77.20;;;;;;4954055;29;20027;-81
2022/12/22 19:01:31;;;;;;;10.07;2.28;;;9.90;77.90;;;;;;4954790;29;20031;-82
2022/12/22 19:04:17;;;;;;;5.22;1.73;;;9.90;78.10;;;;;;4958706;28;20042;-81
2022/12/22 19:07:29;;;;;;;8.40;2.10;;;9.80;79.00;;;;;;4992422;28;20038;-79
2022/12/22 19:11:14;;;;;;;7.97;1.65;;;9.80;79.40;;;;;;4957766;28;20078;-82
2022/12/22 19:20:57;;;;;;;13.48;2.28;;;9.70;81.00;;;;;;4974700;28;20049;-81
2022/12/22 19:23:49;;;;;;;6.28;1.58;;;9.70;80.80;;;;;;4960005;28;20082;-82
2022/12/22 19:26:24;;;;;;;9.52;1.77;;;9.70;81.90;;;;;;4974098;28;20023;-81
2022/12/22 19:28:54;;;;;;;9.60;2.00;;;9.70;80.40;;;;;;4974614;28;20509;-81
2022/12/22 19:31:24;;;;;;;9.98;1.70;;;9.60;81.50;;;;;;4974342;28;20495;-83
2022/12/22 19:34:09;;;;;;;6.65;1.55;;;9.60;81.90;;;;;;4983149;28;20053;-82
2022/12/22 19:36:45;;;;;;;6.50;2.20;;;9.60;81.50;;;;;;4969812;28;20023;-82
2022/12/22 19:39:35;;;;;;;12.10;2.58;;;9.60;81.80;;;;;;4954704;28;20563;-82
2022/12/22 19:42:08;;;;;;;6.47;1.70;;;9.60;81.90;;;;;;4979500;28;20034;-81
2022/12/22 19:44:37;;;;;;;10.13;1.85;;;9.50;82.00;;;;;;4952443;28;20061;-81
2022/12/22 19:47:03;;;;;;;7.72;1.40;;;9.60;81.70;;;;;;4957266;28;20027;-82
2022/12/22 19:49:28;;;;;;;6.30;1.65;;;9.60;81.40;;;;;;4940726;28;20047;-84